KSTJ/STJ METAR and TAF weather

Enter ICAO airport designator
Station Type Date Time Source
KSTJ METAR 2022/01/25 04:53 UTC NOAA

KSTJ 250453Z AUTO 02011KT 10SM CLR M08/M13 A3019 RMK AO2 SLP230 T10831128


Station Type Date Time Source
KSTJ Decoded METAR 2022/01/25 04:53 UTC NOAA

ROSECRANS MEMORIAL AIRPORT, MO, United States (KSTJ) 39-46N 94-55W 247M
Jan 24, 2022 - 11:53 PM EST / 2022.01.25 0453 UTC
Wind: from the NNE (020 degrees) at 13 MPH (11 KT):0
Visibility: 10 mile(s):0
Sky conditions: clear
Temperature: 17.1 F (-8.3 C)
Windchill: 3 F (-16 C):1
Dew Point: 9.0 F (-12.8 C)
Relative Humidity: 69%
Pressure (altimeter): 30.19 in. Hg (1022 hPa)
ob: KSTJ 250453Z AUTO 02011KT 10SM CLR M08/M13 A3019 RMK AO2 SLP230 T10831128
cycle: 5

Station Type Date Time Source
KSTJ TAF 2022/01/25 06:24 UTC NOAA

TAF KSTJ 250521Z 2506/2606 02009KT P6SM FEW200

Example: see airport list